Time;durP1;ratioP1;P1;durP2;ratioP2;P2;SDS_P1;SDS_P2;PMS_P1;PMS_P2;Temp;Humidity;BMP_temperature;BMP_pressure;BME280_temperature;BME280_humidity;BME280_pressure;Samples;Min_cycle;Max_cycle;Signal;HPM_P1;HPM_P2
2021/11/18 00:01:33;;;;;;;1.98;1.75;;;;;;;;;;5009672;28;20234;-74
2021/11/18 00:03:59;;;;;;;1.40;1.30;;;;;;;;;;5008315;28;20757;-75
2021/11/18 00:06:25;;;;;;;0.57;0.57;;;;;;;;;;5009825;28;20596;-74
2021/11/18 00:08:51;;;;;;;0.47;0.47;;;;;;;;;;5009520;28;20550;-73
2021/11/18 00:11:20;;;;;;;0.30;0.30;;;;;;;;;;5009163;28;20392;-74
2021/11/18 00:13:53;;;;;;;1.65;1.38;;;;;;;;;;5009114;28;20038;-74
2021/11/18 00:16:19;;;;;;;0.55;0.55;;;;;;;;;;5008960;28;20034;-74
2021/11/18 00:18:45;;;;;;;0.25;0.25;;;;;;;;;;5011253;28;20129;-74
2021/11/18 00:21:16;;;;;;;0.20;0.20;;;;;;;;;;5019477;28;20112;-75
2021/11/18 00:23:42;;;;;;;;;;;;;;;;;;5021495;28;20030;-75
2021/11/18 00:26:08;;;;;;;1.42;1.00;;;;;;;;;;5015187;28;19963;-75
2021/11/18 00:28:35;;;;;;;0.10;0.10;;;;;;;;;;5016698;28;20624;-75
2021/11/18 00:31:01;;;;;;;0.40;0.40;;;;;;;;;;5011588;28;20026;-74
2021/11/18 00:33:27;;;;;;;0.50;0.50;;;;;;;;;;5012120;28;20034;-75
2021/11/18 00:35:53;;;;;;;0.10;0.10;;;;;;;;;;5012185;28;20046;-74
2021/11/18 00:38:20;;;;;;;7.60;2.80;;;;;;;;;;5012518;28;20030;-74
2021/11/18 00:40:47;;;;;;;0.60;0.60;;;;;;;;;;5010550;28;20053;-74
2021/11/18 00:43:14;;;;;;;1.10;1.05;;;;;;;;;;5012393;28;20029;-74
2021/11/18 00:45:40;;;;;;;0.60;0.60;;;;;;;;;;5010843;28;20448;-74
2021/11/18 00:48:07;;;;;;;0.20;0.20;;;;;;;;;;5009953;28;20088;-74
2021/11/18 00:50:36;;;;;;;0.60;0.60;;;;;;;;;;5012155;28;20477;-75
2021/11/18 00:53:02;;;;;;;2.55;0.85;;;;;;;;;;5011562;28;20080;-74
2021/11/18 00:55:29;;;;;;;2.70;1.65;;;;;;;;;;5011802;28;20131;-74
2021/11/18 00:57:55;;;;;;;2.30;1.63;;;;;;;;;;5011043;28;20038;-74
2021/11/18 01:00:24;;;;;;;4.00;0.47;;;;;;;;;;5010944;28;20102;-74
2021/11/18 01:02:50;;;;;;;0.38;0.38;;;;;;;;;;5011421;28;20030;-73
2021/11/18 01:05:17;;;;;;;0.55;0.55;;;;;;;;;;5011115;28;20121;-74
2021/11/18 01:07:43;;;;;;;1.73;1.10;;;;;;;;;;5010282;28;20036;-74
2021/11/18 01:10:10;;;;;;;0.38;0.38;;;;;;;;;;5010996;28;20034;-74
2021/11/18 01:12:36;;;;;;;0.10;0.10;;;;;;;;;;5012144;28;20033;-74
2021/11/18 01:15:03;;;;;;;1.40;1.30;;;;;;;;;;5011825;28;20033;-74
2021/11/18 01:17:29;;;;;;;2.85;1.45;;;;;;;;;;5011592;28;20037;-74
2021/11/18 01:19:55;;;;;;;0.45;0.45;;;;;;;;;;5011082;28;20022;-74
2021/11/18 01:22:21;;;;;;;0.95;0.90;;;;;;;;;;5011438;28;20018;-74
2021/11/18 01:24:47;;;;;;;0.17;0.17;;;;;;;;;;5011120;28;20420;-74
2021/11/18 01:27:13;;;;;;;0.52;0.30;;;;;;;;;;5012304;28;20213;-73
2021/11/18 01:29:39;;;;;;;4.10;1.17;;;;;;;;;;5013732;28;20116;-74
2021/11/18 01:32:05;;;;;;;0.22;0.22;;;;;;;;;;5010964;28;20046;-74
2021/11/18 01:34:31;;;;;;;0.95;0.88;;;;;;;;;;5010812;28;20034;-74
2021/11/18 01:36:57;;;;;;;0.15;0.15;;;;;;;;;;5012974;28;20084;-74
2021/11/18 01:39:23;;;;;;;0.35;0.35;;;;;;;;;;5016088;28;20022;-74
2021/11/18 01:41:49;;;;;;;0.30;0.30;;;;;;;;;;5010632;28;20029;-74
2021/11/18 01:44:20;;;;;;;1.35;1.25;;;;;;;;;;5010221;28;20049;-75
2021/11/18 01:46:47;;;;;;;2.67;1.17;;;;;;;;;;5011664;28;20040;-73
2021/11/18 01:49:13;;;;;;;3.08;0.85;;;;;;;;;;5010934;28;20022;-75
2021/11/18 01:51:41;;;;;;;0.93;0.75;;;;;;;;;;5011761;28;20074;-74
2021/11/18 01:54:08;;;;;;;24.08;0.70;;;;;;;;;;5009610;28;20084;-74
2021/11/18 01:56:34;;;;;;;2.33;0.73;;;;;;;;;;5011492;28;20042;-75
2021/11/18 01:59:15;;;;;;;0.68;0.68;;;;;;;;;;5011146;28;20018;-74
2021/11/18 02:01:42;;;;;;;0.30;0.30;;;;;;;;;;5011557;28;20074;-74
2021/11/18 02:04:10;;;;;;;0.85;0.85;;;;;;;;;;5010689;28;20030;-74
2021/11/18 02:06:37;;;;;;;0.40;0.40;;;;;;;;;;5010319;28;20026;-75
2021/11/18 02:09:08;;;;;;;0.25;0.25;;;;;;;;;;5010461;28;20041;-74
2021/11/18 02:11:38;;;;;;;2.00;0.82;;;;;;;;;;5011043;28;20113;-74
2021/11/18 02:14:04;;;;;;;0.40;0.40;;;;;;;;;;5010955;28;20038;-74
2021/11/18 02:16:31;;;;;;;1.13;1.02;;;;;;;;;;5010750;28;20037;-74
2021/11/18 02:18:57;;;;;;;1.13;0.60;;;;;;;;;;5010488;28;20022;-74
2021/11/18 02:21:23;;;;;;;0.73;0.63;;;;;;;;;;5011094;28;20076;-74
2021/11/18 02:23:53;;;;;;;0.20;0.20;;;;;;;;;;5010406;28;20026;-74
2021/11/18 02:26:20;;;;;;;0.83;0.83;;;;;;;;;;5009990;28;20029;-75
2021/11/18 02:28:47;;;;;;;1.10;0.45;;;;;;;;;;5010086;28;20140;-74
2021/11/18 02:31:23;;;;;;;1.80;0.90;;;;;;;;;;5005078;28;20029;-74
2021/11/18 02:33:49;;;;;;;2.25;0.57;;;;;;;;;;5015823;28;20037;-74
2021/11/18 02:36:15;;;;;;;1.25;1.23;;;;;;;;;;5009712;28;20507;-74
2021/11/18 02:38:41;;;;;;;1.13;1.02;;;;;;;;;;5010508;28;20144;-74
2021/11/18 02:41:09;;;;;;;0.43;0.43;;;;;;;;;;5009202;28;20053;-75
2021/11/18 02:43:35;;;;;;;1.08;1.05;;;;;;;;;;5010584;28;20030;-74
2021/11/18 02:46:01;;;;;;;1.92;1.40;;;;;;;;;;5008445;28;20037;-74
2021/11/18 02:48:28;;;;;;;0.70;0.70;;;;;;;;;;5010733;28;20025;-74
2021/11/18 02:50:56;;;;;;;0.28;0.28;;;;;;;;;;5015955;28;20037;-74
2021/11/18 02:53:22;;;;;;;0.95;0.95;;;;;;;;;;5010102;28;20038;-74
2021/11/18 02:55:49;;;;;;;0.20;0.20;;;;;;;;;;5010434;28;20496;-74
2021/11/18 02:58:15;;;;;;;2.83;0.90;;;;;;;;;;5008214;28;20026;-74
2021/11/18 03:00:46;;;;;;;1.40;1.08;;;;;;;;;;5010005;28;20149;-74
2021/11/18 03:03:13;;;;;;;0.63;0.47;;;;;;;;;;5009792;28;20303;-74
2021/11/18 03:05:39;;;;;;;0.15;0.15;;;;;;;;;;5010416;28;20488;-75
2021/11/18 03:08:05;;;;;;;1.48;1.23;;;;;;;;;;5009848;28;20057;-73
2021/11/18 03:10:31;;;;;;;0.10;0.10;;;;;;;;;;5009673;28;20492;-73
2021/11/18 03:12:57;;;;;;;0.00;0.00;;;;;;;;;;5010395;28;20048;-74
2021/11/18 03:15:24;;;;;;;0.28;0.28;;;;;;;;;;5009260;28;20034;-74
2021/11/18 03:17:50;;;;;;;0.28;0.28;;;;;;;;;;5009657;28;20073;-74
2021/11/18 03:20:18;;;;;;;2.97;0.73;;;;;;;;;;5009509;28;20425;-74
2021/11/18 03:22:44;;;;;;;2.42;2.00;;;;;;;;;;5009892;28;20065;-74
2021/11/18 03:25:12;;;;;;;7.38;0.95;;;;;;;;;;5009796;28;20408;-74
2021/11/18 03:27:38;;;;;;;0.15;0.15;;;;;;;;;;5001898;28;20469;-74
2021/11/18 03:30:05;;;;;;;1.83;1.65;;;;;;;;;;5009006;28;20042;-74
2021/11/18 03:32:31;;;;;;;3.40;1.80;;;;;;;;;;5009921;28;20056;-75
2021/11/18 03:34:57;;;;;;;0.30;0.30;;;;;;;;;;5009261;28;20135;-74
2021/11/18 03:37:23;;;;;;;0.40;0.40;;;;;;;;;;5009265;28;20029;-74
2021/11/18 03:39:49;;;;;;;0.90;0.85;;;;;;;;;;5011799;28;20312;-74
2021/11/18 03:42:15;;;;;;;0.80;0.68;;;;;;;;;;5009243;28;20022;-74
2021/11/18 03:44:41;;;;;;;0.70;0.70;;;;;;;;;;5009832;28;20028;-74
2021/11/18 03:47:09;;;;;;;0.85;0.85;;;;;;;;;;5009305;28;20397;-74
2021/11/18 03:49:35;;;;;;;10.27;1.52;;;;;;;;;;5009257;28;20057;-74
2021/11/18 03:52:02;;;;;;;1.55;1.40;;;;;;;;;;5011514;28;20037;-74
2021/11/18 03:54:29;;;;;;;7.20;1.33;;;;;;;;;;5012695;28;20371;-75
2021/11/18 03:56:55;;;;;;;0.63;0.63;;;;;;;;;;5022945;28;20128;-74
2021/11/18 03:59:27;;;;;;;0.28;0.28;;;;;;;;;;5026316;28;20500;-74
2021/11/18 04:01:53;;;;;;;1.33;1.23;;;;;;;;;;5012389;28;20022;-74
2021/11/18 04:04:20;;;;;;;0.95;0.95;;;;;;;;;;5012910;28;20026;-74
2021/11/18 04:06:46;;;;;;;0.20;0.20;;;;;;;;;;5013103;28;20076;-74
2021/11/18 04:09:13;;;;;;;0.30;0.30;;;;;;;;;;5012802;28;20038;-74
2021/11/18 04:11:40;;;;;;;2.08;0.55;;;;;;;;;;5013088;28;20028;-74
2021/11/18 04:14:07;;;;;;;0.63;0.63;;;;;;;;;;5013348;28;20033;-74
2021/11/18 04:16:33;;;;;;;0.52;0.40;;;;;;;;;;5006455;28;20026;-75
2021/11/18 04:18:59;;;;;;;3.20;1.13;;;;;;;;;;5000695;28;20385;-74
2021/11/18 04:21:28;;;;;;;0.20;0.20;;;;;;;;;;5011575;28;20077;-74
2021/11/18 04:23:54;;;;;;;1.25;1.15;;;;;;;;;;5005150;28;20030;-74
2021/11/18 04:26:19;;;;;;;7.10;1.00;;;;;;;;;;5012852;28;20037;-74
2021/11/18 04:28:46;;;;;;;1.20;0.75;;;;;;;;;;5013079;28;20057;-74
2021/11/18 04:31:15;;;;;;;1.98;1.15;;;;;;;;;;5012206;28;20405;-74
2021/11/18 04:33:41;;;;;;;0.57;0.57;;;;;;;;;;5012746;28;20030;-74
2021/11/18 04:36:09;;;;;;;1.15;1.10;;;;;;;;;;5012662;28;20421;-76
2021/11/18 04:38:35;;;;;;;2.17;2.00;;;;;;;;;;5012863;28;20026;-74
2021/11/18 04:41:01;;;;;;;0.35;0.35;;;;;;;;;;5011896;28;20018;-74
2021/11/18 04:43:27;;;;;;;2.25;1.45;;;;;;;;;;5011499;28;20040;-74
2021/11/18 04:45:53;;;;;;;0.63;0.55;;;;;;;;;;5024940;28;20048;-73
2021/11/18 04:48:19;;;;;;;4.40;0.75;;;;;;;;;;5011235;28;20056;-73
2021/11/18 04:50:45;;;;;;;8.45;0.68;;;;;;;;;;5012485;28;20034;-74
2021/11/18 04:53:12;;;;;;;0.80;0.80;;;;;;;;;;5011920;28;20472;-74
2021/11/18 04:55:38;;;;;;;0.20;0.20;;;;;;;;;;5011096;28;20030;-74
2021/11/18 04:58:05;;;;;;;9.80;0.77;;;;;;;;;;5011958;28;20030;-75
2021/11/18 05:00:34;;;;;;;0.20;0.20;;;;;;;;;;5010736;28;20053;-74
2021/11/18 05:03:00;;;;;;;1.30;0.45;;;;;;;;;;5011361;28;20385;-74
2021/11/18 05:05:27;;;;;;;0.47;0.47;;;;;;;;;;5011626;28;20064;-74
2021/11/18 05:07:53;;;;;;;10.73;0.95;;;;;;;;;;5017017;28;20036;-75
2021/11/18 05:10:19;;;;;;;0.35;0.35;;;;;;;;;;5016046;28;20117;-74
2021/11/18 05:12:45;;;;;;;0.20;0.20;;;;;;;;;;5012112;28;20088;-74
2021/11/18 05:15:14;;;;;;;2.85;0.77;;;;;;;;;;5011799;28;20040;-74
2021/11/18 05:17:40;;;;;;;0.28;0.28;;;;;;;;;;5011847;28;20113;-74
2021/11/18 05:20:07;;;;;;;1.63;0.43;;;;;;;;;;5012113;28;20076;-74
2021/11/18 05:22:34;;;;;;;1.30;1.10;;;;;;;;;;5011714;28;20473;-75
2021/11/18 05:25:00;;;;;;;2.03;1.02;;;;;;;;;;5011954;28;20532;-74
2021/11/18 05:27:26;;;;;;;2.13;1.92;;;;;;;;;;5011628;28;20034;-73
2021/11/18 05:29:52;;;;;;;0.47;0.47;;;;;;;;;;5011469;28;20088;-74
2021/11/18 05:32:19;;;;;;;0.10;0.10;;;;;;;;;;5011741;28;20030;-74
2021/11/18 05:34:45;;;;;;;2.17;1.17;;;;;;;;;;5008158;28;20029;-75
2021/11/18 05:37:11;;;;;;;4.25;1.67;;;;;;;;;;5011438;28;20030;-74
2021/11/18 05:39:37;;;;;;;0.22;0.22;;;;;;;;;;5011458;28;20068;-74
2021/11/18 05:42:03;;;;;;;13.88;1.85;;;;;;;;;;5011281;28;20370;-74
2021/11/18 05:44:29;;;;;;;7.95;0.55;;;;;;;;;;5011196;28;20026;-75
2021/11/18 05:46:55;;;;;;;0.20;0.20;;;;;;;;;;5010412;28;20056;-74
2021/11/18 05:49:21;;;;;;;0.88;0.88;;;;;;;;;;5011235;28;20033;-74
2021/11/18 05:51:48;;;;;;;1.23;1.13;;;;;;;;;;5014306;28;20049;-75
2021/11/18 05:54:14;;;;;;;0.88;0.88;;;;;;;;;;5010880;28;20495;-74
2021/11/18 05:56:42;;;;;;;0.32;0.32;;;;;;;;;;5011246;28;20167;-74
2021/11/18 05:59:09;;;;;;;1.95;1.35;;;;;;;;;;5010258;28;20513;-74
2021/11/18 06:01:35;;;;;;;0.43;0.43;;;;;;;;;;5009244;28;20030;-74
2021/11/18 06:04:01;;;;;;;1.45;0.73;;;;;;;;;;5009856;28;20026;-74
2021/11/18 06:06:28;;;;;;;0.10;0.10;;;;;;;;;;5010156;28;20037;-74
2021/11/18 06:08:54;;;;;;;0.57;0.57;;;;;;;;;;5010393;28;20033;-74
2021/11/18 06:11:20;;;;;;;1.10;1.10;;;;;;;;;;5009587;28;20483;-74
2021/11/18 06:13:50;;;;;;;1.45;1.33;;;;;;;;;;5008977;28;20444;-74
2021/11/18 06:16:17;;;;;;;1.17;1.08;;;;;;;;;;5008795;28;20139;-74
2021/11/18 06:18:43;;;;;;;1.00;0.98;;;;;;;;;;5009848;28;20022;-70
2021/11/18 06:21:09;;;;;;;5.50;1.38;;;;;;;;;;5015393;28;20035;-70
2021/11/18 06:23:34;;;;;;;0.47;0.47;;;;;;;;;;5011306;28;20026;-71
2021/11/18 06:26:01;;;;;;;1.92;1.75;;;;;;;;;;5010203;28;20126;-71
2021/11/18 06:28:26;;;;;;;1.48;1.38;;;;;;;;;;5010673;28;20034;-70
2021/11/18 06:30:57;;;;;;;2.08;1.08;;;;;;;;;;5010044;28;20432;-71
2021/11/18 06:33:23;;;;;;;0.98;0.75;;;;;;;;;;5009643;28;20053;-70
2021/11/18 06:35:50;;;;;;;3.22;1.80;;;;;;;;;;5010021;28;20080;-70
2021/11/18 06:38:16;;;;;;;3.55;2.65;;;;;;;;;;5009734;28;20491;-70
2021/11/18 06:40:45;;;;;;;0.25;0.25;;;;;;;;;;5010575;28;20030;-70
2021/11/18 06:43:11;;;;;;;0.35;0.35;;;;;;;;;;5009077;28;20215;-70
2021/11/18 06:45:38;;;;;;;0.15;0.15;;;;;;;;;;5015643;28;20339;-70
2021/11/18 06:48:04;;;;;;;1.08;0.57;;;;;;;;;;5009021;28;20038;-70
2021/11/18 06:50:31;;;;;;;0.52;0.52;;;;;;;;;;5005760;28;20087;-69
2021/11/18 06:52:57;;;;;;;0.10;0.10;;;;;;;;;;5009113;28;20026;-71
2021/11/18 06:55:23;;;;;;;1.23;0.65;;;;;;;;;;5009195;28;20080;-70
2021/11/18 06:57:50;;;;;;;0.30;0.30;;;;;;;;;;5014035;28;20172;-70
2021/11/18 07:00:17;;;;;;;0.43;0.30;;;;;;;;;;5009364;28;20049;-71
2021/11/18 07:02:43;;;;;;;0.30;0.30;;;;;;;;;;5009212;28;20555;-69
2021/11/18 07:05:09;;;;;;;2.53;2.30;;;;;;;;;;5005272;28;20026;-70
2021/11/18 07:07:35;;;;;;;0.40;0.40;;;;;;;;;;5002924;28;20021;-69
2021/11/18 07:10:02;;;;;;;3.17;2.17;;;;;;;;;;5006236;28;20392;-70
2021/11/18 07:12:30;;;;;;;0.40;0.40;;;;;;;;;;5000009;28;20049;-70
2021/11/18 07:14:57;;;;;;;0.40;0.40;;;;;;;;;;5004904;28;20018;-69
2021/11/18 07:17:23;;;;;;;0.30;0.28;;;;;;;;;;5002348;28;20036;-70
2021/11/18 07:19:49;;;;;;;0.57;0.57;;;;;;;;;;5001844;28;20033;-70
2021/11/18 07:22:16;;;;;;;1.40;0.55;;;;;;;;;;5001073;28;20464;-70
2021/11/18 07:24:43;;;;;;;1.55;0.40;;;;;;;;;;5004473;28;20030;-70
2021/11/18 07:27:09;;;;;;;0.05;0.05;;;;;;;;;;5001559;28;20033;-70
2021/11/18 07:29:35;;;;;;;3.90;1.33;;;;;;;;;;5003398;28;20033;-70
2021/11/18 07:32:01;;;;;;;1.83;0.85;;;;;;;;;;5004328;28;20026;-70
2021/11/18 07:34:27;;;;;;;5.85;1.70;;;;;;;;;;5000624;28;20038;-71
2021/11/18 07:36:53;;;;;;;0.63;0.52;;;;;;;;;;5005787;28;20029;-70
2021/11/18 07:39:22;;;;;;;4.05;1.15;;;;;;;;;;5006572;28;20026;-71
2021/11/18 07:41:48;;;;;;;0.57;0.57;;;;;;;;;;5008120;28;20029;-70
2021/11/18 07:44:14;;;;;;;1.38;1.08;;;;;;;;;;5005259;28;20582;-70
2021/11/18 07:46:41;;;;;;;5.80;2.72;;;;;;;;;;5005708;28;20029;-70
2021/11/18 07:49:07;;;;;;;0.63;0.63;;;;;;;;;;5010287;28;20501;-70
2021/11/18 07:51:33;;;;;;;2.92;1.00;;;;;;;;;;5008774;28;20540;-70
2021/11/18 07:53:59;;;;;;;0.10;0.10;;;;;;;;;;5004310;28;20428;-70
2021/11/18 07:56:26;;;;;;;0.17;0.17;;;;;;;;;;5008544;28;20430;-71
2021/11/18 07:58:52;;;;;;;1.75;1.25;;;;;;;;;;5008823;28;20010;-71
2021/11/18 08:01:19;;;;;;;0.25;0.25;;;;;;;;;;5007850;28;20440;-71
2021/11/18 08:03:45;;;;;;;0.70;0.70;;;;;;;;;;5014902;28;20595;-72
2021/11/18 08:06:12;;;;;;;1.95;0.75;;;;;;;;;;5008875;28;20485;-72
2021/11/18 08:08:45;;;;;;;2.05;0.63;;;;;;;;;;5006664;28;20500;-70
2021/11/18 08:11:13;;;;;;;0.10;0.10;;;;;;;;;;5008634;28;20030;-72
2021/11/18 08:13:39;;;;;;;1.10;1.05;;;;;;;;;;5008293;28;20070;-70
2021/11/18 08:16:19;;;;;;;0.73;0.73;;;;;;;;;;5006992;28;20112;-73
2021/11/18 08:18:51;;;;;;;0.27;0.27;;;;;;;;;;5009851;28;20073;-70
2021/11/18 08:21:20;;;;;;;8.10;0.85;;;;;;;;;;5038825;28;20022;-69
2021/11/18 08:23:46;;;;;;;0.47;0.47;;;;;;;;;;5016412;28;20026;-69
2021/11/18 08:26:14;;;;;;;0.00;0.00;;;;;;;;;;5005373;28;20025;-69
2021/11/18 08:28:42;;;;;;;2.90;1.33;;;;;;;;;;5009344;28;20176;-69
2021/11/18 08:31:08;;;;;;;0.22;0.22;;;;;;;;;;5008674;28;20032;-69
2021/11/18 08:33:34;;;;;;;7.00;1.25;;;;;;;;;;5007579;28;20400;-69
2021/11/18 08:36:00;;;;;;;0.20;0.20;;;;;;;;;;5010678;28;20030;-69
2021/11/18 08:38:29;;;;;;;2.22;1.35;;;;;;;;;;5006597;28;20113;-69
2021/11/18 08:40:58;;;;;;;0.98;0.47;;;;;;;;;;5012598;28;20025;-69
2021/11/18 08:43:25;;;;;;;0.10;0.10;;;;;;;;;;5011631;28;20114;-69
2021/11/18 08:45:51;;;;;;;4.72;2.80;;;;;;;;;;5012281;28;20062;-69
2021/11/18 08:48:17;;;;;;;2.20;1.85;;;;;;;;;;5010661;28;20152;-69
2021/11/18 08:50:44;;;;;;;3.40;2.25;;;;;;;;;;5011406;28;20022;-69
2021/11/18 08:53:11;;;;;;;0.85;0.82;;;;;;;;;;5012455;28;20034;-69
2021/11/18 08:55:38;;;;;;;3.60;1.13;;;;;;;;;;5010290;28;20029;-69
2021/11/18 08:58:06;;;;;;;1.70;1.30;;;;;;;;;;5012276;28;20454;-69
2021/11/18 09:00:43;;;;;;;0.10;0.10;;;;;;;;;;5009059;28;20038;-69
2021/11/18 09:03:09;;;;;;;0.88;0.50;;;;;;;;;;5011272;28;20124;-69
2021/11/18 09:05:35;;;;;;;0.45;0.45;;;;;;;;;;5009051;28;20050;-69
2021/11/18 09:08:03;;;;;;;0.10;0.10;;;;;;;;;;5010704;28;20030;-70
2021/11/18 09:10:29;;;;;;;0.38;0.38;;;;;;;;;;5011102;28;20045;-70
2021/11/18 09:12:55;;;;;;;0.85;0.85;;;;;;;;;;5011459;28;20548;-70
2021/11/18 09:15:23;;;;;;;0.10;0.10;;;;;;;;;;5011398;28;20025;-70
2021/11/18 09:17:49;;;;;;;0.63;0.63;;;;;;;;;;5009772;28;20458;-70
2021/11/18 09:20:17;;;;;;;1.20;1.02;;;;;;;;;;5010232;28;20056;-69
2021/11/18 09:22:43;;;;;;;3.17;0.95;;;;;;;;;;5011013;28;20030;-70
2021/11/18 09:25:11;;;;;;;0.47;0.47;;;;;;;;;;5011325;28;20088;-69
2021/11/18 09:27:39;;;;;;;7.68;2.38;;;;;;;;;;5010652;28;20034;-69
2021/11/18 09:30:06;;;;;;;0.05;0.05;;;;;;;;;;5011464;28;20390;-70
2021/11/18 09:32:33;;;;;;;0.20;0.20;;;;;;;;;;5010775;28;20029;-70
2021/11/18 09:34:59;;;;;;;0.43;0.32;;;;;;;;;;5020213;28;20034;-70
2021/11/18 09:37:26;;;;;;;0.05;0.05;;;;;;;;;;5010571;28;20171;-71
2021/11/18 09:39:52;;;;;;;31.80;0.93;;;;;;;;;;5010877;28;20084;-73
2021/11/18 09:42:22;;;;;;;0.55;0.32;;;;;;;;;;5010399;28;20030;-73
2021/11/18 09:44:51;;;;;;;3.28;1.67;;;;;;;;;;5011129;28;20026;-72
2021/11/18 09:47:38;;;;;;;0.17;0.17;;;;;;;;;;5009627;28;20037;-72
2021/11/18 09:50:23;;;;;;;0.10;0.10;;;;;;;;;;5010370;28;20034;-72
2021/11/18 09:53:12;;;;;;;0.40;0.35;;;;;;;;;;5011819;28;20046;-72
2021/11/18 09:55:44;;;;;;;0.17;0.13;;;;;;;;;;5002286;28;20037;-71
2021/11/18 09:58:10;;;;;;;0.17;0.17;;;;;;;;;;5002534;28;20041;-72
2021/11/18 10:00:47;;;;;;;1.98;0.95;;;;;;;;;;5001729;28;20045;-72
2021/11/18 10:03:26;;;;;;;0.57;0.57;;;;;;;;;;5008324;28;20662;-72
2021/11/18 10:05:57;;;;;;;0.10;0.10;;;;;;;;;;5006304;28;20022;-73
2021/11/18 10:08:24;;;;;;;0.10;0.10;;;;;;;;;;5005543;28;20049;-72
2021/11/18 10:11:06;;;;;;;0.70;0.70;;;;;;;;;;5006021;28;20764;-72
2021/11/18 10:13:41;;;;;;;2.42;1.73;;;;;;;;;;5008709;28;20064;-72
2021/11/18 10:16:11;;;;;;;2.35;0.98;;;;;;;;;;5003421;28;20041;-72
2021/11/18 10:18:43;;;;;;;16.05;2.92;;;;;;;;;;5005219;28;20484;-72
2021/11/18 10:21:12;;;;;;;0.95;0.90;;;;;;;;;;5010361;28;20404;-72
2021/11/18 10:23:38;;;;;;;0.10;0.10;;;;;;;;;;5007617;28;20036;-72
2021/11/18 10:26:15;;;;;;;0.38;0.38;;;;;;;;;;5008009;28;20030;-72
2021/11/18 10:28:43;;;;;;;1.00;0.95;;;;;;;;;;5006186;28;20029;-73
2021/11/18 10:31:17;;;;;;;0.65;0.65;;;;;;;;;;5008633;28;20436;-72
2021/11/18 10:33:52;;;;;;;1.05;0.55;;;;;;;;;;5006703;28;20105;-72
2021/11/18 10:36:34;;;;;;;0.75;0.75;;;;;;;;;;5009460;28;20125;-72
2021/11/18 10:39:11;;;;;;;0.10;0.10;;;;;;;;;;5003870;28;20029;-72
2021/11/18 10:41:37;;;;;;;4.38;1.20;;;;;;;;;;5008671;28;20125;-71
2021/11/18 10:44:08;;;;;;;0.68;0.68;;;;;;;;;;5005620;28;20586;-72
2021/11/18 10:46:36;;;;;;;0.43;0.43;;;;;;;;;;5004227;28;20130;-72
2021/11/18 10:49:10;;;;;;;0.20;0.20;;;;;;;;;;5008578;28;20117;-72
2021/11/18 10:51:41;;;;;;;5.78;1.58;;;;;;;;;;5006003;28;20034;-72
2021/11/18 10:54:08;;;;;;;0.00;0.00;;;;;;;;;;5005859;28;20057;-72
2021/11/18 10:56:40;;;;;;;0.95;0.93;;;;;;;;;;5005337;28;20037;-72
2021/11/18 10:59:08;;;;;;;3.30;0.65;;;;;;;;;;5006184;28;20037;-72
2021/11/18 11:01:36;;;;;;;1.38;1.27;;;;;;;;;;5008009;28;20030;-72
2021/11/18 11:04:04;;;;;;;0.77;0.70;;;;;;;;;;5008818;28;20236;-72
2021/11/18 11:06:42;;;;;;;0.22;0.22;;;;;;;;;;5007798;28;20481;-72
2021/11/18 11:09:14;;;;;;;4.90;0.73;;;;;;;;;;5006451;28;20042;-72
2021/11/18 11:11:52;;;;;;;1.27;1.17;;;;;;;;;;5003433;28;20113;-72
2021/11/18 11:14:18;;;;;;;3.30;1.90;;;;;;;;;;5010307;28;20509;-72
2021/11/18 11:16:57;;;;;;;0.38;0.38;;;;;;;;;;5010028;28;20034;-72
2021/11/18 11:19:42;;;;;;;2.08;1.90;;;;;;;;;;5010186;28;20052;-72
2021/11/18 11:22:13;;;;;;;0.20;0.20;;;;;;;;;;5010179;28;20077;-71
2021/11/18 11:24:44;;;;;;;1.33;1.15;;;;;;;;;;5009773;28;20046;-71
2021/11/18 11:27:16;;;;;;;0.52;0.52;;;;;;;;;;5009411;28;20109;-72
2021/11/18 11:29:53;;;;;;;3.75;1.58;;;;;;;;;;5008947;28;20041;-71
2021/11/18 11:32:24;;;;;;;3.78;0.47;;;;;;;;;;5005960;28;20054;-71
2021/11/18 11:35:06;;;;;;;2.30;1.73;;;;;;;;;;5008167;28;20030;-71
2021/11/18 11:38:01;;;;;;;0.30;0.30;;;;;;;;;;5006645;28;20289;-71
2021/11/18 11:40:46;;;;;;;9.43;1.50;;;;;;;;;;5007073;28;20026;-71
2021/11/18 11:43:12;;;;;;;0.10;0.10;;;;;;;;;;5009218;28;20048;-71
2021/11/18 11:45:41;;;;;;;12.82;1.48;;;;;;;;;;5008997;28;20509;-71
2021/11/18 11:48:28;;;;;;;0.45;0.43;;;;;;;;;;5009316;28;20489;-71
2021/11/18 11:51:03;;;;;;;0.20;0.20;;;;;;;;;;5008287;28;20037;-71
2021/11/18 11:53:38;;;;;;;0.80;0.80;;;;;;;;;;5008581;28;20026;-71
2021/11/18 11:56:04;;;;;;;0.52;0.52;;;;;;;;;;5009008;28;20104;-72
2021/11/18 11:58:33;;;;;;;36.75;1.85;;;;;;;;;;5008714;28;20489;-71
2021/11/18 12:01:08;;;;;;;0.20;0.20;;;;;;;;;;5015142;28;20050;-71
2021/11/18 12:03:53;;;;;;;2.97;1.35;;;;;;;;;;5008724;28;20033;-71
2021/11/18 12:06:30;;;;;;;0.30;0.30;;;;;;;;;;5008969;28;20030;-71
2021/11/18 12:08:59;;;;;;;2.35;0.85;;;;;;;;;;5008806;28;20066;-71
2021/11/18 12:11:44;;;;;;;15.15;1.48;;;;;;;;;;5008541;28;20030;-71
2021/11/18 12:14:22;;;;;;;0.50;0.50;;;;;;;;;;5012579;28;20496;-71
2021/11/18 12:16:53;;;;;;;0.00;0.00;;;;;;;;;;5012455;28;20044;-71
2021/11/18 12:19:34;;;;;;;9.93;2.05;;;;;;;;;;5012740;28;20021;-71
2021/11/18 12:22:00;;;;;;;0.47;0.47;;;;;;;;;;5011923;28;20534;-71
2021/11/18 12:24:38;;;;;;;0.85;0.85;;;;;;;;;;5012837;28;20091;-71
2021/11/18 12:27:23;;;;;;;0.63;0.47;;;;;;;;;;5012951;28;20072;-71
2021/11/18 12:29:50;;;;;;;0.88;0.73;;;;;;;;;;5012735;28;20033;-71
2021/11/18 12:32:16;;;;;;;0.28;0.28;;;;;;;;;;5012391;28;20075;-71
2021/11/18 12:34:52;;;;;;;4.40;2.40;;;;;;;;;;5011882;28;20439;-71
2021/11/18 12:37:24;;;;;;;3.40;1.85;;;;;;;;;;5012521;28;20017;-71
2021/11/18 12:39:49;;;;;;;;;;;;;;;;;;5012164;28;20034;-71
2021/11/18 12:42:24;;;;;;;0.47;0.47;;;;;;;;;;5012236;28;19913;-70
2021/11/18 12:45:03;;;;;;;0.75;0.75;;;;;;;;;;5011646;28;20026;-71
2021/11/18 12:47:41;;;;;;;10.35;1.60;;;;;;;;;;5011850;28;20034;-71
2021/11/18 12:50:15;;;;;;;15.35;3.78;;;;;;;;;;5011467;28;20384;-71
2021/11/18 12:53:01;;;;;;;1.55;1.35;;;;;;;;;;5011660;28;20045;-71
2021/11/18 12:55:47;;;;;;;0.25;0.17;;;;;;;;;;5010815;28;20141;-71
2021/11/18 12:58:25;;;;;;;4.32;2.63;;;;;;;;;;5005505;28;20046;-71
2021/11/18 13:00:56;;;;;;;7.78;2.08;;;;;;;;;;5011307;28;20050;-71
2021/11/18 13:03:54;;;;;;;2.00;0.85;;;;;;;;;;5011791;28;20021;-72
2021/11/18 13:06:29;;;;;;;20.73;1.30;;;;;;;;;;5011617;28;20054;-71
2021/11/18 13:08:57;;;;;;;2.53;1.52;;;;;;;;;;5010046;28;20495;-71
2021/11/18 13:11:26;;;;;;;15.13;2.33;;;;;;;;;;5011567;28;20045;-71
2021/11/18 13:14:10;;;;;;;0.10;0.10;;;;;;;;;;5011278;28;20037;-71
2021/11/18 13:16:36;;;;;;;0.63;0.63;;;;;;;;;;5011948;28;20022;-71
2021/11/18 13:19:05;;;;;;;0.00;0.00;;;;;;;;;;5010884;28;20036;-71
2021/11/18 13:21:43;;;;;;;5.47;1.98;;;;;;;;;;5011622;28;20037;-71
2021/11/18 13:24:10;;;;;;;1.10;1.02;;;;;;;;;;5011250;28;20034;-70
2021/11/18 13:26:37;;;;;;;0.35;0.30;;;;;;;;;;5011311;28;20121;-70
2021/11/18 13:29:16;;;;;;;0.65;0.65;;;;;;;;;;5011708;28;20203;-71
2021/11/18 13:31:52;;;;;;;6.57;1.38;;;;;;;;;;5011315;28;20026;-70
2021/11/18 13:34:35;;;;;;;0.60;0.45;;;;;;;;;;5011834;28;20026;-70
2021/11/18 13:37:13;;;;;;;4.85;1.58;;;;;;;;;;5011201;28;20060;-71
2021/11/18 13:39:38;;;;;;;0.98;0.98;;;;;;;;;;5009898;28;20018;-71
2021/11/18 13:42:24;;;;;;;1.65;1.13;;;;;;;;;;5011083;28;20084;-70
2021/11/18 13:44:55;;;;;;;35.60;2.13;;;;;;;;;;5010799;28;20033;-70
2021/11/18 13:47:24;;;;;;;0.20;0.20;;;;;;;;;;5011016;28;20037;-70
2021/11/18 13:49:51;;;;;;;4.07;1.90;;;;;;;;;;5009603;28;20026;-70
2021/11/18 13:52:19;;;;;;;3.22;0.93;;;;;;;;;;5010624;28;20030;-71
2021/11/18 13:54:51;;;;;;;2.50;1.38;;;;;;;;;;5010757;28;20030;-71
2021/11/18 13:57:17;;;;;;;;;;;;;;;;;;5010773;28;20033;-71
2021/11/18 13:59:44;;;;;;;0.13;0.13;;;;;;;;;;5010113;28;19970;-69
2021/11/18 14:02:14;;;;;;;0.30;0.30;;;;;;;;;;5010442;28;20013;-69
2021/11/18 14:04:50;;;;;;;2.28;1.00;;;;;;;;;;5012012;28;20080;-70
2021/11/18 14:07:16;;;;;;;0.77;0.77;;;;;;;;;;5018851;28;20121;-69
2021/11/18 14:09:44;;;;;;;3.95;1.02;;;;;;;;;;5013140;28;20502;-69
2021/11/18 14:12:25;;;;;;;0.35;0.35;;;;;;;;;;4997954;28;20122;-69
2021/11/18 14:15:08;;;;;;;0.10;0.10;;;;;;;;;;5010184;28;20034;-70
2021/11/18 14:17:34;;;;;;;2.28;1.27;;;;;;;;;;5009738;28;20044;-69
2021/11/18 14:20:15;;;;;;;0.50;0.50;;;;;;;;;;5008991;28;20034;-69
2021/11/18 14:22:41;;;;;;;;;;;;;;;;;;5009128;28;20024;-70
2021/11/18 14:25:31;;;;;;;0.20;0.20;;;;;;;;;;5008760;28;19992;-70
2021/11/18 14:27:59;;;;;;;0.55;0.55;;;;;;;;;;5009084;28;20018;-70
2021/11/18 14:30:39;;;;;;;3.33;1.95;;;;;;;;;;5009375;28;20056;-70
2021/11/18 14:33:17;;;;;;;0.73;0.73;;;;;;;;;;5009170;28;20030;-70
2021/11/18 14:35:49;;;;;;;0.60;0.60;;;;;;;;;;5005290;28;20030;-71
2021/11/18 14:38:38;;;;;;;1.65;0.88;;;;;;;;;;5008684;28;20026;-70
2021/11/18 14:41:14;;;;;;;0.20;0.20;;;;;;;;;;5007424;28;20045;-70
2021/11/18 14:43:56;;;;;;;24.25;2.85;;;;;;;;;;5006308;28;20136;-70
2021/11/18 14:46:42;;;;;;;1.48;0.52;;;;;;;;;;5010084;28;20555;-70
2021/11/18 14:49:11;;;;;;;0.40;0.40;;;;;;;;;;5009349;28;20026;-70
2021/11/18 14:51:40;;;;;;;0.10;0.10;;;;;;;;;;5008646;28;20053;-70
2021/11/18 14:57:24;;;;;;;1.75;0.65;;;;;;;;;;5005996;28;20121;-72
2021/11/18 14:59:50;;;;;;;1.10;1.00;;;;;;;;;;5008387;28;20077;-73